Time;durP1;ratioP1;P1;durP2;ratioP2;P2;SDS_P1;SDS_P2;PMS_P1;PMS_P2;Temp;Humidity;BMP_temperature;BMP_pressure;BME280_temperature;BME280_humidity;BME280_pressure;Samples;Min_cycle;Max_cycle;Signal;HPM_P1;HPM_P2
2021/04/11 00:00:33;;;;;;;21.00;17.80;;;10.30;74.70;11.70;99849.00;;;;4927153;29;20974;-77
2021/04/11 00:03:03;;;;;;;21.97;18.90;;;10.20;74.40;11.70;99852.00;;;;4929348;29;20473;-78
2021/04/11 00:05:33;;;;;;;23.00;18.10;;;10.20;74.50;11.70;99846.00;;;;4942812;28;21049;-78
2021/04/11 00:08:01;;;;;;;26.70;19.87;;;10.20;74.80;11.70;99858.00;;;;4933613;29;20453;-78
2021/04/11 00:10:32;;;;;;;17.07;15.27;;;10.10;75.10;11.60;99843.00;;;;4944518;28;20464;-76
2021/04/11 00:13:01;;;;;;;17.23;14.80;;;10.10;74.90;11.60;99837.00;;;;4930432;29;20473;-76
2021/04/11 00:15:29;;;;;;;16.90;15.10;;;10.10;75.00;11.60;99834.00;;;;4944963;28;20548;-76
2021/04/11 00:17:56;;;;;;;15.80;14.10;;;10.10;75.10;11.50;99837.00;;;;4944641;28;20483;-77
2021/04/11 00:20:25;;;;;;;20.30;14.50;;;10.10;75.00;11.60;99830.00;;;;4945587;28;20520;-77
2021/04/11 00:22:54;;;;;;;20.00;16.20;;;10.10;74.90;11.60;99828.00;;;;4947024;28;20492;-77
2021/04/11 00:25:25;;;;;;;16.90;15.07;;;10.10;74.60;11.50;99826.00;;;;4948142;29;20512;-77
2021/04/11 00:27:53;;;;;;;15.97;14.27;;;10.20;74.20;11.50;99833.00;;;;4934031;29;20473;-77
2021/04/11 00:30:21;;;;;;;18.40;15.07;;;10.20;74.20;11.50;99817.00;;;;4929438;29;20489;-77
2021/04/11 00:32:50;;;;;;;17.50;15.53;;;10.10;74.00;11.50;99812.00;;;;4930144;29;21564;-77
2021/04/11 00:35:18;;;;;;;17.80;16.00;;;10.00;74.30;11.40;99804.00;;;;4946459;28;20465;-77
2021/04/11 00:37:46;;;;;;;17.70;15.80;;;9.90;75.50;11.30;99821.00;;;;4933093;29;20488;-77
2021/04/11 00:40:20;;;;;;;21.97;17.77;;;9.80;75.70;11.10;99812.00;;;;4962330;29;20450;-77
2021/04/11 00:42:52;;;;;;;18.23;16.33;;;9.70;76.30;11.00;99806.00;;;;4956447;29;20476;-78
2021/04/11 00:45:31;;;;;;;20.97;16.60;;;9.60;76.70;11.00;99808.00;;;;4949955;29;20433;-76
2021/04/11 00:47:59;;;;;;;22.87;16.90;;;9.60;77.30;11.00;99807.00;;;;4952747;29;20489;-77
2021/04/11 00:50:27;;;;;;;21.70;16.57;;;9.50;77.40;10.90;99792.00;;;;4952603;29;20520;-78
2021/04/11 00:52:56;;;;;;;21.30;18.33;;;9.30;77.30;10.80;99802.00;;;;4946216;29;20483;-78
2021/04/11 00:55:26;;;;;;;20.70;17.47;;;9.20;77.30;10.80;99800.00;;;;4932493;29;20445;-78
2021/04/11 00:57:56;;;;;;;20.50;18.37;;;9.20;78.30;10.70;99793.00;;;;4946855;28;20484;-77
2021/04/11 01:00:31;;;;;;;22.77;18.93;;;9.20;78.60;10.70;99800.00;;;;4930206;28;20754;-78
2021/04/11 01:02:59;;;;;;;19.90;17.77;;;9.20;78.50;10.70;99807.00;;;;4945930;29;20473;-77
2021/04/11 01:05:33;;;;;;;19.07;17.17;;;9.20;78.30;10.70;99793.00;;;;4933002;29;20488;-77
2021/04/11 01:08:10;;;;;;;19.83;17.10;;;9.10;78.30;10.70;99793.00;;;;4938803;29;20453;-77
2021/04/11 01:10:43;;;;;;;20.57;18.37;;;9.10;78.30;10.70;99799.00;;;;4946157;28;20516;-78
2021/04/11 01:13:11;;;;;;;23.57;21.07;;;9.00;78.50;10.80;99781.00;;;;4931346;29;20478;-77
2021/04/11 01:15:39;;;;;;;23.30;20.90;;;9.00;79.00;10.80;99807.00;;;;4930717;29;20548;-77
2021/04/11 01:18:07;;;;;;;24.13;21.67;;;9.20;79.20;10.90;99790.00;;;;4938974;28;20492;-78
2021/04/11 01:20:36;;;;;;;22.90;20.50;;;9.10;78.80;11.00;99789.00;;;;4940114;28;20493;-77
2021/04/11 01:23:20;;;;;;;21.73;19.07;;;9.30;78.80;11.00;99780.00;;;;4947797;29;20490;-78
2021/04/11 01:25:50;;;;;;;23.77;20.27;;;9.30;78.60;11.00;99789.00;;;;4951044;28;20477;-76
2021/04/11 01:28:23;;;;;;;22.83;19.20;;;9.30;78.40;11.00;99797.00;;;;4953292;29;20453;-76
2021/04/11 01:30:55;;;;;;;23.10;20.30;;;9.20;78.30;11.00;99788.00;;;;4935219;29;20470;-77
2021/04/11 01:33:28;;;;;;;22.53;20.03;;;9.20;78.30;11.00;99770.00;;;;4954898;28;20511;-78
2021/04/11 01:35:59;;;;;;;20.73;18.50;;;9.30;78.40;10.90;99783.00;;;;4927393;29;20461;-77
2021/04/11 01:38:30;;;;;;;23.63;19.33;;;9.20;78.30;10.90;99771.00;;;;4962615;29;20497;-78
2021/04/11 01:41:05;;;;;;;22.80;18.83;;;9.20;78.30;10.90;99766.00;;;;4969246;29;20441;-78
2021/04/11 01:43:37;;;;;;;22.47;20.17;;;9.20;78.30;10.90;99770.00;;;;4971453;28;20528;-77
2021/04/11 01:46:06;;;;;;;25.23;21.37;;;9.10;78.30;10.80;99758.00;;;;4953128;28;20481;-78
2021/04/11 01:48:35;;;;;;;22.40;19.83;;;9.10;78.20;10.80;99750.00;;;;4956900;29;20449;-78
2021/04/11 01:51:07;;;;;;;22.10;19.70;;;9.00;78.20;10.90;99761.00;;;;4967548;28;20453;-77
2021/04/11 01:53:37;;;;;;;22.17;19.63;;;9.10;78.30;10.90;99762.00;;;;4955042;28;20461;-78
2021/04/11 01:56:10;;;;;;;21.73;19.30;;;9.10;78.30;10.80;99765.00;;;;4971455;28;20446;-76
2021/04/11 01:58:40;;;;;;;22.80;20.40;;;9.00;78.20;10.80;99763.00;;;;4955133;28;20490;-77
2021/04/11 02:01:24;;;;;;;31.30;27.10;;;8.90;78.10;10.80;99752.00;;;;4940708;28;20507;-76
2021/04/11 02:03:57;;;;;;;22.97;20.57;;;9.00;78.20;10.90;99770.00;;;;4950705;29;20572;-78
2021/04/11 02:06:28;;;;;;;23.03;20.63;;;9.00;78.20;10.80;99754.00;;;;4925133;29;20512;-77
2021/04/11 02:09:08;;;;;;;21.80;19.50;;;9.10;78.30;10.80;99744.00;;;;4947535;28;20467;-77
2021/04/11 02:11:49;;;;;;;21.97;19.67;;;9.10;78.60;10.70;99736.00;;;;4946948;29;20552;-77
2021/04/11 02:14:17;;;;;;;21.73;19.40;;;9.20;78.50;10.60;99739.00;;;;4945329;28;20481;-77
2021/04/11 02:16:45;;;;;;;22.00;19.70;;;9.10;78.30;10.70;99743.00;;;;4920805;29;20480;-77
2021/04/11 02:19:17;;;;;;;46.47;21.57;;;9.00;78.20;10.70;99736.00;;;;4944426;29;20489;-77
2021/04/11 02:21:48;;;;;;;21.40;19.30;;;9.00;78.20;10.70;99731.00;;;;4934773;29;20556;-78
2021/04/11 02:24:16;;;;;;;24.30;20.63;;;8.90;78.10;10.70;99730.00;;;;4960610;28;20485;-77
2021/04/11 02:26:44;;;;;;;24.00;19.80;;;8.90;78.10;10.60;99744.00;;;;4953909;28;20825;-77
2021/04/11 02:29:21;;;;;;;21.30;18.03;;;8.90;78.20;10.60;99739.00;;;;4943162;28;20460;-77
2021/04/11 02:31:50;;;;;;;22.07;17.80;;;8.90;78.10;10.60;99726.00;;;;4937856;28;20552;-77
2021/04/11 02:34:23;;;;;;;19.43;17.50;;;8.90;78.10;10.60;99735.00;;;;4930942;29;20477;-77
2021/04/11 02:36:56;;;;;;;20.73;18.70;;;9.00;78.60;10.60;99725.00;;;;4940314;28;20465;-77
2021/04/11 02:39:28;;;;;;;19.90;17.80;;;9.10;79.60;10.60;99731.00;;;;4941880;28;20461;-76
2021/04/11 02:42:00;;;;;;;21.03;18.97;;;9.10;79.10;10.70;99738.00;;;;4919988;29;20498;-76
2021/04/11 02:44:35;;;;;;;20.40;18.40;;;9.10;78.90;10.80;99735.00;;;;4942264;28;20469;-76
2021/04/11 02:47:04;;;;;;;19.47;17.57;;;9.00;78.80;10.90;99738.00;;;;4927674;29;20878;-78
2021/04/11 02:49:34;;;;;;;20.73;18.60;;;9.20;78.90;10.90;99732.00;;;;4928216;29;20564;-77
2021/04/11 02:52:06;;;;;;;20.50;18.40;;;9.20;78.70;10.90;99727.00;;;;4941476;28;20457;-78
2021/04/11 02:54:38;;;;;;;22.67;18.13;;;9.20;78.80;10.90;99738.00;;;;4920901;29;20588;-77
2021/04/11 02:57:15;;;;;;;19.97;17.87;;;9.30;78.80;10.90;99729.00;;;;4934967;28;20848;-77
2021/04/11 02:59:45;;;;;;;20.17;18.07;;;9.20;78.30;10.90;99745.00;;;;4941567;29;21119;-77
2021/04/11 03:02:14;;;;;;;19.13;17.10;;;9.20;78.30;11.00;99723.00;;;;4943546;29;20485;-78
2021/04/11 03:04:52;;;;;;;20.43;18.23;;;9.20;78.40;10.90;99726.00;;;;4926788;29;20536;-77
2021/04/11 03:07:25;;;;;;;19.97;17.90;;;9.20;78.30;10.90;99723.00;;;;4943023;29;20971;-77
2021/04/11 03:09:59;;;;;;;23.53;21.37;;;9.10;78.30;10.90;99730.00;;;;4934623;29;20462;-78
2021/04/11 03:12:32;;;;;;;23.10;19.93;;;9.20;78.50;10.90;99717.00;;;;4927816;29;20528;-78
2021/04/11 03:15:04;;;;;;;20.27;18.20;;;9.20;78.90;10.90;99722.00;;;;4933306;28;20453;-78
2021/04/11 03:17:32;;;;;;;24.67;18.47;;;9.20;78.90;10.90;99716.00;;;;4952546;28;20523;-77
2021/04/11 03:20:08;;;;;;;22.70;18.30;;;9.20;78.80;10.90;99714.00;;;;4956195;29;20472;-79
2021/04/11 03:22:37;;;;;;;23.73;21.20;;;9.10;78.60;10.90;99717.00;;;;4960749;29;20468;-77
2021/04/11 03:25:14;;;;;;;24.87;21.23;;;9.10;78.70;10.90;99718.00;;;;4948832;28;20523;-78
2021/04/11 03:27:50;;;;;;;25.67;22.87;;;9.10;78.80;10.90;99705.00;;;;4943435;29;20493;-78
2021/04/11 03:30:25;;;;;;;23.60;21.20;;;9.10;78.90;10.80;99715.00;;;;4934902;29;20460;-77
2021/04/11 03:32:59;;;;;;;25.00;22.37;;;9.00;78.80;10.80;99717.00;;;;4926586;29;20473;-77
2021/04/11 03:35:32;;;;;;;23.10;20.50;;;9.00;78.90;10.80;99715.00;;;;4927417;28;20453;-77
2021/04/11 03:38:03;;;;;;;23.30;20.90;;;9.00;79.00;10.80;99729.00;;;;4926723;28;20560;-78
2021/04/11 03:40:34;;;;;;;21.20;19.20;;;9.00;78.90;10.80;99723.00;;;;4941883;28;20457;-77
2021/04/11 03:43:14;;;;;;;22.07;18.73;;;9.10;79.20;10.90;99728.00;;;;4937112;28;20480;-78
2021/04/11 03:45:45;;;;;;;19.60;17.60;;;9.10;79.30;11.00;99717.00;;;;4925629;29;20461;-78
2021/04/11 03:48:21;;;;;;;20.57;18.57;;;9.20;79.10;11.00;99720.00;;;;4942070;28;20468;-78
2021/04/11 03:51:06;;;;;;;20.60;18.40;;;9.20;78.90;11.10;99721.00;;;;4942280;29;20449;-78
2021/04/11 03:53:42;;;;;;;21.83;18.83;;;9.30;78.70;11.10;99723.00;;;;4942852;28;20487;-78
2021/04/11 03:56:13;;;;;;;21.30;19.10;;;9.30;78.70;11.00;99721.00;;;;4928064;29;20465;-78
2021/04/11 03:58:44;;;;;;;20.73;18.63;;;9.30;78.40;11.10;99727.00;;;;4960312;28;20516;-77
2021/04/11 04:01:36;;;;;;;19.57;16.90;;;9.20;78.30;11.00;99727.00;;;;4950013;28;20489;-77
2021/04/11 04:04:11;;;;;;;23.10;18.13;;;9.20;78.50;11.00;99722.00;;;;4951992;29;20473;-77
2021/04/11 04:07:09;;;;;;;19.53;17.60;;;9.30;78.40;11.00;99724.00;;;;4952723;28;20453;-77
2021/04/11 04:09:39;;;;;;;20.30;17.80;;;9.20;78.60;11.00;99725.00;;;;4955953;28;20458;-77
2021/04/11 04:12:29;;;;;;;20.23;18.13;;;9.20;78.80;11.00;99728.00;;;;4935984;29;20472;-78
2021/04/11 04:15:28;;;;;;;21.07;18.70;;;9.20;78.60;11.10;99721.00;;;;4936050;29;20454;-77
2021/04/11 04:18:18;;;;;;;18.93;17.07;;;9.30;78.60;11.20;99727.00;;;;4921238;29;20583;-78
2021/04/11 04:20:59;;;;;;;20.70;18.43;;;9.30;78.40;11.20;99744.00;;;;4943345;28;20457;-77
2021/04/11 04:23:45;;;;;;;20.57;17.17;;;9.40;78.50;11.20;99730.00;;;;4943791;29;20583;-78
2021/04/11 04:26:51;;;;;;;19.30;17.30;;;9.30;78.40;11.20;99733.00;;;;4944837;29;20955;-78
2021/04/11 04:29:32;;;;;;;18.50;16.70;;;9.40;78.60;11.20;99733.00;;;;4939709;29;20979;-77
2021/04/11 04:32:36;;;;;;;20.63;18.43;;;9.40;78.30;11.20;99725.00;;;;4942201;29;20682;-78
2021/04/11 04:35:28;;;;;;;20.60;17.40;;;9.40;77.80;11.20;99723.00;;;;4942440;28;20457;-77
2021/04/11 04:38:16;;;;;;;19.40;17.40;;;9.40;78.00;11.20;99717.00;;;;4925964;28;20717;-78
2021/04/11 04:41:02;;;;;;;17.67;15.90;;;9.50;78.10;11.20;99723.00;;;;4940549;29;20445;-78
2021/04/11 04:43:45;;;;;;;19.70;17.47;;;9.40;77.90;11.20;99722.00;;;;4926538;29;20484;-77
2021/04/11 04:46:19;;;;;;;18.83;16.70;;;9.40;78.30;11.20;99719.00;;;;4934812;29;20536;-77
2021/04/11 04:48:56;;;;;;;19.93;17.93;;;9.40;78.50;11.20;99717.00;;;;4926244;29;20453;-78
2021/04/11 04:51:36;;;;;;;26.73;18.50;;;9.40;78.50;11.20;99721.00;;;;4941325;28;20473;-78
2021/04/11 04:54:17;;;;;;;20.30;17.10;;;9.40;78.50;11.10;99714.00;;;;4919891;29;20853;-78
2021/04/11 04:56:53;;;;;;;19.37;17.43;;;9.30;78.40;11.10;99727.00;;;;4943400;29;21006;-77
2021/04/11 04:59:28;;;;;;;18.20;16.47;;;9.30;78.40;11.10;99726.00;;;;4935167;28;20639;-77
2021/04/11 05:02:04;;;;;;;20.07;17.93;;;9.40;78.50;11.20;99725.00;;;;4934591;28;20516;-78
2021/04/11 05:04:47;;;;;;;18.83;16.83;;;9.40;78.50;11.20;99707.00;;;;4919324;29;20572;-78
2021/04/11 05:07:21;;;;;;;18.87;16.87;;;9.40;78.40;11.30;99724.00;;;;4943759;28;20470;-78
2021/04/11 05:09:57;;;;;;;17.90;16.00;;;9.50;78.40;11.30;99708.00;;;;4944543;28;20877;-78
2021/04/11 05:12:50;;;;;;;17.20;15.47;;;9.50;78.00;11.30;99717.00;;;;4951354;28;20667;-78
2021/04/11 05:15:23;;;;;;;17.63;15.93;;;9.60;77.60;11.40;99719.00;;;;4950443;29;20998;-77
2021/04/11 05:18:18;;;;;;;19.20;17.20;;;9.60;77.60;11.50;99719.00;;;;4965891;28;20477;-77
2021/04/11 05:21:02;;;;;;;18.30;16.03;;;9.60;77.40;11.60;99721.00;;;;4949083;29;20457;-77
2021/04/11 05:23:42;;;;;;;16.50;14.90;;;9.70;77.10;11.60;99712.00;;;;4930138;29;20489;-77
2021/04/11 05:26:15;;;;;;;17.37;15.57;;;9.80;77.10;11.70;99713.00;;;;4945232;28;20497;-78
2021/04/11 05:28:51;;;;;;;18.30;16.43;;;9.80;76.90;11.70;99707.00;;;;4943991;28;20849;-78
2021/04/11 05:31:24;;;;;;;18.07;16.23;;;9.80;76.60;11.50;99697.00;;;;4942531;28;20453;-77
2021/04/11 05:33:54;;;;;;;17.00;15.30;;;9.80;76.70;11.60;99702.00;;;;4943678;29;20473;-78
2021/04/11 05:36:37;;;;;;;16.50;14.93;;;9.90;76.80;11.70;99715.00;;;;4943743;29;20947;-77
2021/04/11 05:39:21;;;;;;;17.90;16.10;;;9.90;76.40;11.80;99728.00;;;;4927855;29;20485;-78
2021/04/11 05:41:59;;;;;;;16.70;14.93;;;9.90;75.90;11.70;99732.00;;;;4943247;28;21404;-78
2021/04/11 05:44:33;;;;;;;17.37;15.57;;;9.90;76.00;11.80;99715.00;;;;4933890;28;20539;-78
2021/04/11 05:47:13;;;;;;;15.90;14.27;;;9.90;76.40;11.80;99711.00;;;;4943896;28;20480;-78
2021/04/11 05:49:48;;;;;;;17.80;15.80;;;10.00;74.60;11.90;99710.00;;;;4942725;29;20983;-78
2021/04/11 05:52:23;;;;;;;17.63;14.33;;;10.10;74.10;11.90;99717.00;;;;4930227;29;20456;-78
2021/04/11 05:54:54;;;;;;;15.60;14.00;;;10.10;73.70;12.00;99726.00;;;;4932517;29;20504;-77
2021/04/11 05:57:27;;;;;;;15.70;14.10;;;10.10;73.80;12.10;99718.00;;;;4959508;29;20442;-79
2021/04/11 06:00:03;;;;;;;16.00;14.60;;;10.20;74.00;12.20;99720.00;;;;4949218;28;20481;-79
2021/04/11 06:02:44;;;;;;;16.63;14.93;;;10.30;73.70;12.20;99726.00;;;;4927309;29;20532;-78
2021/04/11 06:05:18;;;;;;;15.90;14.30;;;10.40;73.50;12.20;99742.00;;;;4928550;29;20457;-78
2021/04/11 06:07:54;;;;;;;13.90;12.60;;;10.30;73.40;12.40;99727.00;;;;4929812;29;20453;-79
2021/04/11 06:10:30;;;;;;;15.37;13.97;;;10.40;73.20;12.60;99739.00;;;;4928992;29;20473;-78
2021/04/11 06:13:01;;;;;;;15.03;13.53;;;10.60;72.30;12.80;99726.00;;;;4928130;29;20489;-78
2021/04/11 06:15:34;;;;;;;14.90;13.50;;;10.80;71.50;12.80;99727.00;;;;4945022;29;20896;-78
2021/04/11 06:18:05;;;;;;;15.30;13.67;;;10.80;71.20;12.90;99730.00;;;;4944354;29;21070;-78
2021/04/11 06:20:33;;;;;;;18.93;13.60;;;10.90;71.10;13.00;99736.00;;;;4927339;29;20457;-78
2021/04/11 06:23:12;;;;;;;15.27;13.77;;;11.00;70.50;13.20;99734.00;;;;4927972;29;20520;-78
2021/04/11 06:25:48;;;;;;;13.10;11.90;;;11.20;70.80;13.30;99737.00;;;;4945181;28;20516;-77
2021/04/11 06:28:25;;;;;;;13.17;11.87;;;11.30;69.30;13.30;99734.00;;;;4944636;29;20880;-77
2021/04/11 06:30:57;;;;;;;13.23;11.83;;;11.30;68.90;13.30;99743.00;;;;4948153;29;20461;-78
2021/04/11 06:33:29;;;;;;;10.17;8.50;;;11.40;68.90;13.40;69237.00;;;;4941704;28;20970;-77
2021/04/11 06:36:01;;;;;;;7.07;5.30;;;11.50;67.40;13.50;99746.00;;;;4949011;28;20460;-78
2021/04/11 06:38:42;;;;;;;4.90;4.50;;;11.80;65.00;13.50;99742.00;;;;4932465;29;20537;-77
2021/04/11 06:41:44;;;;;;;5.10;3.70;;;11.90;62.90;13.50;99743.00;;;;4930732;29;20859;-77
2021/04/11 06:44:59;;;;;;;6.60;4.10;;;12.00;61.60;13.50;99736.00;;;;4933546;29;20488;-77
2021/04/11 06:48:16;;;;;;;5.43;3.33;;;12.10;60.50;13.30;99746.00;;;;4943003;29;20450;-77
2021/04/11 06:51:24;;;;;;;3.53;3.20;;;12.00;59.70;13.20;99743.00;;;;4929294;29;20719;-77
2021/04/11 06:54:43;;;;;;;3.20;2.90;;;12.00;59.20;13.20;99739.00;;;;4922554;29;20520;-78
2021/04/11 06:57:27;;;;;;;5.27;3.73;;;12.00;58.00;13.20;99740.00;;;;4947410;28;20827;-78
2021/04/11 07:00:08;;;;;;;5.57;3.73;;;12.00;57.90;13.30;99758.00;;;;4944523;28;21299;-78
2021/04/11 07:03:36;;;;;;;5.53;3.87;;;12.00;57.70;13.30;99736.00;;;;4930029;29;20876;-78
2021/04/11 07:06:42;;;;;;;5.60;4.07;;;12.10;57.10;13.70;99741.00;;;;4929089;29;20460;-77
2021/04/11 07:09:35;;;;;;;5.83;3.57;;;12.40;56.40;14.10;99738.00;;;;4934101;29;20461;-78
2021/04/11 07:12:47;;;;;;;5.33;3.83;;;12.60;54.90;14.20;99742.00;;;;4931236;29;20818;-77
2021/04/11 07:15:46;;;;;;;5.70;3.60;;;12.80;53.80;14.30;99750.00;;;;4937072;28;20475;-78
2021/04/11 07:18:58;;;;;;;4.87;3.83;;;12.80;53.90;14.40;99737.00;;;;4927792;29;20508;-78
2021/04/11 07:22:02;;;;;;;4.80;3.03;;;12.90;53.00;14.60;99739.00;;;;4928502;29;20513;-78
2021/04/11 07:24:47;;;;;;;6.10;3.27;;;13.10;51.90;15.00;99737.00;;;;4926734;29;21002;-77
2021/04/11 07:27:28;;;;;;;4.70;3.57;;;13.40;49.70;15.20;99730.00;;;;4925351;29;20461;-77
2021/04/11 07:30:14;;;;;;;4.40;3.20;;;13.60;47.00;15.40;99729.00;;;;4926125;29;20462;-77
2021/04/11 07:33:36;;;;;;;4.83;3.40;;;13.80;45.20;15.80;99730.00;;;;4943340;28;20986;-77
2021/04/11 07:36:27;;;;;;;5.90;3.67;;;14.00;44.30;16.20;99727.00;;;;4926549;29;21322;-76
2021/04/11 07:39:12;;;;;;;4.00;3.37;;;14.30;42.90;16.30;99745.00;;;;4928762;29;20842;-76
2021/04/11 07:41:56;;;;;;;4.23;3.27;;;14.50;40.40;16.40;99742.00;;;;4944358;29;20449;-78
2021/04/11 07:45:17;;;;;;;6.47;3.53;;;14.70;40.30;16.80;99749.00;;;;4945422;28;20900;-77
2021/04/11 07:48:01;;;;;;;4.30;3.70;;;14.90;38.90;16.80;99740.00;;;;4924820;29;20466;-78
2021/04/11 07:50:44;;;;;;;8.00;3.40;;;15.00;34.80;16.50;99753.00;;;;4933940;29;20446;-77
2021/04/11 07:53:50;;;;;;;7.00;3.60;;;14.80;35.00;16.40;99741.00;;;;4949907;29;20497;-77
2021/04/11 07:56:25;;;;;;;5.03;3.37;;;14.70;34.90;16.70;99744.00;;;;4963063;28;20445;-78
2021/04/11 07:59:35;;;;;;;5.43;3.37;;;14.90;32.70;17.00;99742.00;;;;4954756;29;20469;-78
2021/04/11 08:02:20;;;;;;;4.23;3.43;;;15.10;32.00;17.30;99741.00;;;;4969057;29;20473;-79
2021/04/11 08:05:21;;;;;;;7.73;3.23;;;15.40;31.10;17.50;99737.00;;;;4951293;29;20477;-78
2021/04/11 08:08:02;;;;;;;3.70;3.20;;;15.70;28.90;17.70;99729.00;;;;4935052;28;20469;-78
2021/04/11 08:10:57;;;;;;;6.80;3.87;;;15.90;27.40;17.90;99730.00;;;;4935607;29;20450;-79
2021/04/11 08:13:47;;;;;;;4.03;2.60;;;16.00;26.40;17.90;99717.00;;;;4933156;29;20491;-77
2021/04/11 08:16:44;;;;;;;6.13;4.53;;;16.10;26.00;17.60;99726.00;;;;4934196;29;21332;-78
2021/04/11 08:20:08;;;;;;;4.40;2.73;;;16.00;26.40;17.20;99732.00;;;;4940171;28;20511;-76
2021/04/11 08:23:10;;;;;;;4.30;2.80;;;15.90;27.10;17.20;99746.00;;;;4944541;29;20469;-77
2021/04/11 08:25:43;;;;;;;7.53;5.97;;;15.90;26.70;17.50;99734.00;;;;4934380;29;20448;-77
2021/04/11 08:28:39;;;;;;;6.00;3.20;;;16.00;26.30;17.40;99738.00;;;;4937039;29;20450;-79
2021/04/11 08:35:33;;;;;;;6.67;3.30;;;15.80;25.50;17.10;99746.00;;;;4924079;29;20477;-78
2021/04/11 08:38:48;;;;;;;5.27;2.93;;;15.80;26.30;17.50;99743.00;;;;4933582;29;20457;-77
2021/04/11 08:42:00;;;;;;;3.90;2.93;;;16.00;25.00;17.60;99757.00;;;;4932938;29;20883;-78
2021/04/11 08:44:45;;;;;;;3.53;2.90;;;16.00;23.30;17.70;99745.00;;;;4848720;29;20481;-78
2021/04/11 08:47:27;;;;;;;5.87;3.07;;;16.00;23.60;17.90;99756.00;;;;4939977;29;20473;-78
2021/04/11 08:49:58;;;;;;;3.77;2.80;;;16.20;22.80;17.90;99756.00;;;;4955072;29;20516;-77
2021/04/11 08:52:45;;;;;;;7.73;3.07;;;16.20;21.20;17.90;99744.00;;;;4965847;29;21305;-77
2021/04/11 08:55:33;;;;;;;3.90;2.27;;;16.30;21.50;17.70;99748.00;;;;4970473;28;20481;-76
2021/04/11 08:58:31;;;;;;;3.30;2.40;;;16.10;22.20;17.40;99753.00;;;;4958350;29;20480;-78
2021/04/11 09:01:11;;;;;;;5.70;2.80;;;16.10;22.20;17.20;99757.00;;;;4929814;29;20476;-78
2021/04/11 09:03:55;;;;;;;3.70;2.90;;;16.10;22.70;17.10;99743.00;;;;4949280;28;20942;-77
2021/04/11 09:06:41;;;;;;;4.37;2.83;;;16.00;22.20;17.00;99743.00;;;;4948195;28;21583;-77
2021/04/11 09:09:54;;;;;;;3.80;2.67;;;15.90;22.90;17.10;99744.00;;;;4941626;28;20461;-76
2021/04/11 09:12:39;;;;;;;7.50;3.40;;;16.00;23.60;17.10;99752.00;;;;4929387;29;20813;-78
2021/04/11 09:15:21;;;;;;;8.10;3.80;;;16.10;23.70;17.20;99759.00;;;;4950606;29;20820;-77
2021/04/11 09:18:21;;;;;;;3.90;2.97;;;16.20;22.80;17.40;99736.00;;;;4950448;29;20457;-78
2021/04/11 09:21:28;;;;;;;4.90;3.17;;;16.40;22.20;17.80;99750.00;;;;4948833;28;20465;-78
2021/04/11 09:24:04;;;;;;;4.50;3.00;;;16.70;21.50;17.80;99742.00;;;;4938063;29;20544;-77
2021/04/11 09:27:27;;;;;;;5.33;3.30;;;16.70;21.10;18.10;99738.00;;;;4952016;29;20530;-79
2021/04/11 09:30:10;;;;;;;4.80;3.00;;;17.00;20.20;18.40;99733.00;;;;4894651;29;20451;-79
2021/04/11 09:33:25;;;;;;;4.20;3.30;;;17.20;19.30;19.10;99745.00;;;;4945229;29;20461;-78
2021/04/11 09:36:06;;;;;;;4.57;3.20;;;17.60;17.70;19.70;99747.00;;;;4925962;29;20472;-77
2021/04/11 09:39:03;;;;;;;4.70;3.17;;;17.90;15.00;20.10;99740.00;;;;4920360;29;20488;-78
2021/04/11 09:42:04;;;;;;;3.23;2.90;;;18.20;14.00;20.00;99742.00;;;;4925546;29;20453;-76
2021/04/11 09:44:50;;;;;;;4.57;3.17;;;18.30;13.00;19.90;99754.00;;;;4941158;29;20537;-77
2021/04/11 09:47:57;;;;;;;4.20;3.33;;;18.30;12.40;20.00;99753.00;;;;4944290;28;20564;-78
2021/04/11 09:50:38;;;;;;;3.10;2.80;;;18.30;13.00;19.80;99736.00;;;;4928910;29;20468;-78
2021/04/11 09:53:53;;;;;;;5.30;2.80;;;18.20;12.20;20.00;99740.00;;;;4947230;29;20493;-78
2021/04/11 09:56:31;;;;;;;5.67;3.03;;;18.20;12.60;20.00;99747.00;;;;4862437;29;21069;-80
2021/04/11 09:59:18;;;;;;;3.50;3.20;;;18.20;12.00;19.80;99745.00;;;;4918929;29;20500;-77
2021/04/11 10:01:55;;;;;;;5.33;3.60;;;18.00;11.70;19.70;99738.00;;;;4942852;29;20457;-78
2021/04/11 10:04:37;;;;;;;3.50;3.03;;;17.90;12.00;19.80;99745.00;;;;4929204;29;20465;-78
2021/04/11 10:07:37;;;;;;;3.60;3.20;;;17.90;12.80;20.00;99740.00;;;;4936132;28;20869;-77
2021/04/11 10:10:29;;;;;;;3.80;2.60;;;18.00;13.00;19.90;99741.00;;;;4939130;29;20481;-77
2021/04/11 10:13:40;;;;;;;4.10;2.73;;;18.10;11.20;19.50;99747.00;;;;4934058;28;20503;-77
2021/04/11 10:16:22;;;;;;;3.10;2.57;;;17.80;11.20;19.40;99745.00;;;;4929384;29;20466;-78
2021/04/11 10:19:45;;;;;;;3.70;2.60;;;17.70;12.50;19.40;99752.00;;;;4943188;29;20473;-77
2021/04/11 10:22:42;;;;;;;4.93;2.50;;;17.60;12.30;19.50;99748.00;;;;4922818;29;20465;-78
2021/04/11 10:25:32;;;;;;;3.43;2.13;;;17.70;12.40;19.60;99744.00;;;;4941187;28;20971;-77
2021/04/11 10:28:21;;;;;;;3.43;2.50;;;17.70;11.90;19.40;99752.00;;;;4928295;29;20464;-77
2021/04/11 10:30:59;;;;;;;2.77;2.43;;;17.70;12.10;19.40;99750.00;;;;4943845;29;20477;-79
2021/04/11 10:33:40;;;;;;;6.80;2.70;;;17.60;12.20;19.00;99753.00;;;;4931900;29;20489;-78
2021/04/11 10:36:15;;;;;;;3.40;2.40;;;17.20;12.30;18.60;99749.00;;;;4931526;29;21313;-78
2021/04/11 10:38:51;;;;;;;4.50;2.50;;;17.00;13.80;18.50;99758.00;;;;4929455;29;20884;-77
2021/04/11 10:41:45;;;;;;;5.70;3.50;;;16.90;14.40;18.90;99743.00;;;;4930405;29;20854;-76
2021/04/11 10:44:38;;;;;;;6.73;3.70;;;17.20;14.00;19.40;99743.00;;;;4943083;29;20493;-76
2021/04/11 10:47:36;;;;;;;3.87;2.53;;;17.40;12.60;19.60;99747.00;;;;4942913;29;20485;-77
2021/04/11 10:50:14;;;;;;;3.97;3.20;;;17.60;12.00;19.70;99748.00;;;;4942412;28;20461;-76
2021/04/11 10:53:16;;;;;;;6.80;3.30;;;17.80;11.80;19.80;99755.00;;;;4916378;29;20461;-76
2021/04/11 10:56:34;;;;;;;6.87;4.00;;;17.90;11.20;19.10;99744.00;;;;4942981;28;20536;-77
2021/04/11 10:59:54;;;;;;;6.77;3.67;;;17.60;11.60;18.50;99760.00;;;;4899609;29;20557;-75
2021/04/11 11:03:10;;;;;;;3.80;3.50;;;17.00;14.20;18.40;99737.00;;;;4923941;29;20458;-77
2021/04/11 11:06:27;;;;;;;5.70;3.70;;;16.80;15.10;18.40;99750.00;;;;4918548;29;20461;-78
2021/04/11 11:09:16;;;;;;;4.83;3.23;;;16.90;15.60;19.30;99726.00;;;;4924825;29;20461;-78
2021/04/11 11:12:03;;;;;;;3.43;2.40;;;17.60;13.90;20.20;99743.00;;;;4929540;29;20465;-78
2021/04/11 11:15:19;;;;;;;4.50;2.90;;;18.40;10.60;20.80;99728.00;;;;4931868;29;20477;-79
2021/04/11 11:18:20;;;;;;;3.30;2.60;;;19.00;7.60;21.00;99742.00;;;;4934526;29;20533;-78
2021/04/11 11:21:03;;;;;;;4.53;3.13;;;19.10;6.00;20.90;99738.00;;;;4947628;29;20465;-79
2021/04/11 11:24:10;;;;;;;5.07;2.87;;;19.10;6.20;21.00;99740.00;;;;4944661;29;20485;-76
2021/04/11 11:27:40;;;;;;;4.10;2.53;;;19.00;6.90;21.30;99750.00;;;;4928472;29;20893;-78
2021/04/11 11:30:28;;;;;;;4.20;2.63;;;19.10;6.60;20.20;99753.00;;;;4847502;29;20459;-78
2021/04/11 11:33:17;;;;;;;4.53;2.47;;;18.40;6.70;19.60;99747.00;;;;4873557;29;20546;-79
2021/04/11 11:35:53;;;;;;;3.17;2.30;;;17.90;9.50;18.70;99761.00;;;;4947138;29;20468;-78
2021/04/11 11:38:27;;;;;;;4.60;2.43;;;17.20;10.70;18.50;99767.00;;;;4949460;28;20494;-76
2021/04/11 11:41:10;;;;;;;4.73;2.57;;;16.90;13.60;18.30;99770.00;;;;4968155;28;20483;-77
2021/04/11 11:43:50;;;;;;;4.10;2.70;;;16.80;15.40;18.10;99771.00;;;;4945790;28;20490;-77
2021/04/11 11:46:27;;;;;;;7.40;3.13;;;16.70;16.20;17.90;99778.00;;;;4926002;29;20465;-77
2021/04/11 11:49:10;;;;;;;6.30;3.40;;;16.40;17.50;17.50;99784.00;;;;4949194;29;20548;-76
2021/04/11 11:51:52;;;;;;;3.83;3.03;;;16.20;19.40;17.10;99785.00;;;;4931441;29;20449;-77
2021/04/11 11:54:29;;;;;;;4.43;3.57;;;15.80;22.70;16.90;99797.00;;;;4950393;29;20611;-78
2021/04/11 11:57:15;;;;;;;3.67;3.27;;;15.60;23.70;16.90;99811.00;;;;4946688;29;20971;-76
2021/04/11 11:59:48;;;;;;;5.93;3.77;;;15.40;25.00;16.70;99788.00;;;;4920908;29;20480;-75
2021/04/11 12:02:35;;;;;;;4.70;3.73;;;15.30;26.00;16.50;99810.00;;;;4925174;29;20516;-76